createdAt,value
2023-03-10T00:04:01.926Z,12.70
2023-03-10T00:09:04.083Z,12.70
2023-03-10T00:14:06.080Z,12.70
2023-03-10T00:19:08.139Z,12.50
2023-03-10T00:24:10.147Z,12.40
2023-03-10T00:29:12.823Z,12.30
2023-03-10T00:34:14.788Z,12.20
2023-03-10T00:39:17.602Z,12.30
2023-03-10T00:44:19.551Z,12.40
2023-03-10T00:49:21.624Z,12.40
2023-03-10T00:54:23.606Z,12.40
2023-03-10T00:59:29.555Z,12.40
2023-03-10T01:04:34.986Z,12.40
2023-03-10T01:09:37.700Z,12.40
2023-03-10T01:14:39.671Z,12.40
2023-03-10T01:19:41.618Z,12.50
2023-03-10T01:24:43.665Z,12.50
2023-03-10T01:29:45.820Z,12.60
2023-03-10T01:34:47.731Z,12.60
2023-03-10T01:39:49.570Z,12.60
2023-03-10T01:45:10.483Z,12.60
2023-03-10T01:50:16.197Z,12.70
2023-03-10T01:55:27.312Z,12.90
2023-03-10T02:00:29.668Z,13.20
2023-03-10T02:05:32.971Z,13.40
2023-03-10T02:10:38.053Z,13.50
2023-03-10T02:15:40.926Z,13.60
2023-03-10T02:20:56.386Z,13.60
2023-03-10T02:26:10.302Z,13.70
2023-03-10T02:31:13.193Z,13.70
2023-03-10T02:36:16.483Z,13.70
2023-03-10T02:41:22.773Z,13.60
2023-03-10T02:46:25.277Z,13.60
2023-03-10T02:51:38.003Z,13.50
2023-03-10T02:56:45.632Z,13.50
2023-03-10T03:01:49.018Z,13.50
2023-03-10T03:06:53.303Z,13.40
2023-03-10T03:11:56.837Z,13.20
2023-03-10T03:16:58.992Z,13.10
2023-03-10T03:22:01.708Z,13.00
2023-03-10T03:27:05.382Z,13.00
2023-03-10T03:32:07.714Z,12.90
2023-03-10T03:37:10.302Z,12.80
2023-03-10T03:42:14.232Z,12.70
2023-03-10T03:47:20.609Z,12.60
2023-03-10T03:52:23.468Z,12.60
2023-03-10T03:57:26.148Z,12.60
2023-03-10T04:02:28.591Z,12.60
2023-03-10T04:07:31.624Z,12.60
2023-03-10T04:12:34.516Z,12.60
2023-03-10T04:17:37.283Z,12.70
2023-03-10T04:22:41.215Z,12.90
2023-03-10T04:27:44.698Z,12.90
2023-03-10T04:32:49.148Z,12.90
2023-03-10T04:37:53.112Z,12.90
2023-03-10T04:42:56.061Z,12.70
2023-03-10T04:47:58.698Z,12.90
2023-03-10T04:53:01.401Z,13.00
2023-03-10T04:58:06.058Z,13.00
2023-03-10T05:03:08.450Z,13.00
2023-03-10T05:08:11.248Z,13.10
2023-03-10T05:13:14.260Z,13.10
2023-03-10T05:18:18.072Z,13.00
2023-03-10T05:23:20.799Z,13.00
2023-03-10T05:28:23.906Z,12.90
2023-03-10T05:33:28.437Z,12.90
2023-03-10T05:38:31.974Z,12.90
2023-03-10T05:43:34.847Z,12.90
2023-03-10T05:48:37.809Z,12.90
2023-03-10T05:53:41.404Z,12.80
2023-03-10T05:58:51.014Z,12.70
2023-03-10T06:03:56.738Z,12.60
2023-03-10T06:08:59.208Z,12.80
2023-03-10T06:14:01.272Z,12.70
2023-03-10T06:19:03.694Z,12.70
2023-03-10T06:24:06.234Z,12.70
2023-03-10T06:29:09.302Z,12.60
2023-03-10T06:34:11.500Z,12.70
2023-03-10T06:39:14.044Z,12.80
2023-03-10T06:44:19.012Z,12.90
2023-03-10T06:49:21.138Z,12.80
2023-03-10T06:54:23.377Z,12.60
2023-03-10T06:59:25.424Z,12.50
2023-03-10T07:04:27.777Z,12.60
2023-03-10T07:09:30.284Z,12.80
2023-03-10T07:14:32.530Z,12.80
2023-03-10T07:19:34.961Z,12.80
2023-03-10T07:24:37.001Z,12.70
2023-03-10T07:29:39.297Z,12.70
2023-03-10T07:34:41.638Z,12.50
2023-03-10T07:39:46.484Z,12.20
2023-03-10T07:44:48.769Z,11.90
2023-03-10T07:49:51.301Z,11.60
2023-03-10T07:54:53.683Z,11.50
2023-03-10T07:59:55.881Z,11.40
2023-03-10T08:04:58.325Z,11.30
2023-03-10T08:10:18.849Z,11.20
2023-03-10T08:15:21.074Z,11.00
2023-03-10T08:20:23.298Z,10.90
2023-03-10T08:25:25.541Z,10.90
2023-03-10T08:30:27.680Z,10.80
2023-03-10T08:35:31.512Z,10.80
2023-03-10T08:40:49.768Z,10.80
2023-03-10T08:45:59.415Z,10.70
2023-03-10T08:51:01.694Z,10.70
2023-03-10T08:56:08.848Z,10.70
2023-03-10T09:01:17.408Z,10.80
2023-03-10T09:06:22.532Z,10.90
2023-03-10T09:11:32.410Z,11.20
2023-03-10T09:16:34.743Z,12.10
2023-03-10T09:21:37.051Z,12.70
2023-03-10T09:26:39.357Z,12.80
2023-03-10T09:31:43.218Z,13.10
2023-03-10T09:36:46.949Z,13.60
2023-03-10T09:42:00.325Z,14.10
2023-03-10T09:47:14.266Z,14.20
2023-03-10T09:53:00.388Z,14.30
2023-03-10T09:58:07.346Z,13.90
2023-03-10T10:03:23.235Z,13.50
2023-03-10T10:08:49.103Z,13.40
2023-03-10T10:14:30.844Z,13.30
2023-03-10T10:19:36.673Z,13.20
2023-03-10T10:25:20.231Z,13.10
2023-03-10T10:30:39.754Z,13.10
2023-03-10T10:35:46.346Z,13.10
2023-03-10T10:41:18.244Z,13.10
2023-03-10T10:46:26.809Z,13.10
2023-03-10T10:51:35.888Z,13.00
2023-03-10T10:56:38.039Z,13.00
2023-03-10T11:02:01.767Z,13.00
2023-03-10T11:07:19.824Z,13.00
2023-03-10T11:12:43.971Z,13.10
2023-03-10T11:17:55.204Z,13.10
2023-03-10T11:23:20.418Z,13.20
2023-03-10T11:28:34.393Z,13.20
2023-03-10T11:34:08.981Z,13.20
2023-03-10T11:39:34.201Z,13.00
2023-03-10T11:44:42.125Z,12.90
2023-03-10T11:49:47.475Z,13.00
2023-03-10T11:55:00.364Z,13.00
2023-03-10T12:00:16.317Z,13.00
2023-03-10T12:05:24.773Z,12.90
2023-03-10T12:10:26.956Z,12.70
2023-03-10T12:15:40.196Z,12.80
2023-03-10T12:20:42.694Z,13.00
2023-03-10T12:25:46.643Z,13.20
2023-03-10T12:30:51.250Z,13.30
2023-03-10T12:36:01.457Z,13.50
2023-03-10T12:41:04.347Z,13.60
2023-03-10T12:46:11.800Z,13.30
2023-03-10T12:51:22.582Z,13.10
2023-03-10T12:56:42.119Z,12.80
2023-03-10T13:01:55.570Z,12.60
2023-03-10T13:07:03.780Z,12.50
2023-03-10T13:12:51.613Z,12.40
2023-03-10T13:17:56.781Z,12.20
2023-03-10T13:22:59.452Z,12.10
2023-03-10T13:28:11.159Z,12.20
2023-03-10T13:33:35.389Z,12.30
2023-03-10T13:38:45.131Z,12.30
2023-03-10T13:43:48.797Z,12.30
2023-03-10T13:48:52.051Z,12.30
2023-03-10T13:53:58.153Z,12.30
2023-03-10T13:59:02.950Z,12.30
2023-03-10T14:04:08.982Z,12.40
2023-03-10T14:09:22.980Z,12.50
2023-03-10T14:14:33.455Z,12.60
2023-03-10T14:19:38.737Z,12.60
2023-03-10T14:24:41.165Z,12.60
2023-03-10T14:29:53.435Z,12.70
2023-03-10T14:34:56.289Z,12.80
2023-03-10T14:39:58.804Z,12.80
2023-03-10T14:45:07.161Z,12.80
2023-03-10T14:50:16.696Z,12.70
2023-03-10T14:55:19.655Z,12.60
2023-03-10T15:00:22.430Z,12.40
2023-03-10T15:05:46.888Z,12.20
2023-03-10T15:10:51.942Z,12.10
2023-03-10T15:15:54.241Z,12.10
2023-03-10T15:21:00.446Z,12.10
2023-03-10T15:26:09.510Z,12.00
2023-03-10T15:31:11.573Z,11.90
2023-03-10T15:36:14.021Z,11.90
2023-03-10T15:41:17.301Z,11.90
2023-03-10T15:46:20.542Z,11.90
2023-03-10T15:51:23.032Z,12.10
2023-03-10T15:56:26.349Z,12.20
2023-03-10T16:01:29.267Z,12.20
2023-03-10T16:06:35.185Z,12.20
2023-03-10T16:11:37.291Z,12.00
2023-03-10T16:16:39.658Z,11.50
2023-03-10T16:21:41.710Z,11.30
2023-03-10T16:26:44.865Z,11.30
2023-03-10T16:31:47.317Z,11.30
2023-03-10T16:36:50.617Z,11.30
2023-03-10T16:41:55.555Z,11.30
2023-03-10T16:46:58.046Z,11.30
2023-03-10T16:52:00.402Z,11.30
2023-03-10T16:57:06.629Z,11.30
2023-03-10T17:02:18.411Z,11.30
2023-03-10T17:07:20.793Z,11.30
2023-03-10T17:12:23.106Z,11.30
2023-03-10T17:17:25.355Z,10.90
2023-03-10T17:22:31.875Z,10.40
2023-03-10T17:27:34.340Z,10.20
2023-03-10T17:32:37.260Z,10.10
2023-03-10T17:37:39.470Z,10.10
2023-03-10T17:42:44.498Z,10.20
2023-03-10T17:47:46.663Z,10.20
2023-03-10T17:52:48.814Z,10.20
2023-03-10T17:57:50.841Z,10.30
2023-03-10T18:02:53.274Z,10.40
2023-03-10T18:07:56.584Z,10.50
2023-03-10T18:12:58.620Z,10.50
2023-03-10T18:18:01.190Z,10.50
2023-03-10T18:23:03.421Z,10.50
2023-03-10T18:28:07.997Z,10.50
2023-03-10T18:33:12.225Z,10.30
2023-03-10T18:38:23.774Z,10.20
2023-03-10T18:43:28.697Z,10.10
2023-03-10T18:48:31.210Z,9.90
2023-03-10T18:53:37.018Z,9.80
2023-03-10T18:58:39.378Z,9.70
2023-03-10T19:03:42.113Z,9.60
2023-03-10T19:14:05.624Z,9.70
2023-03-10T19:19:07.935Z,9.70
2023-03-10T19:24:11.174Z,9.70
2023-03-10T19:29:13.641Z,9.80
2023-03-10T19:34:15.948Z,9.80
2023-03-10T19:39:19.471Z,9.80
2023-03-10T19:44:22.154Z,9.80
2023-03-10T19:49:24.731Z,9.90
2023-03-10T19:54:27.583Z,10.00
2023-03-10T19:59:29.958Z,9.90
2023-03-10T20:04:34.554Z,10.00
2023-03-10T20:09:36.962Z,10.00
2023-03-10T20:14:39.345Z,10.10
2023-03-10T20:19:50.752Z,10.10
2023-03-10T20:24:56.891Z,10.10
2023-03-10T20:30:00.485Z,10.10
2023-03-10T20:35:06.749Z,10.00
2023-03-10T20:40:19.984Z,10.00
2023-03-10T20:45:23.692Z,9.90
2023-03-10T20:50:26.484Z,9.80
2023-03-10T20:55:33.161Z,9.80
2023-03-10T21:00:36.238Z,9.70
2023-03-10T21:05:39.171Z,9.70
2023-03-10T21:10:46.721Z,9.60
2023-03-10T21:15:50.935Z,9.50
2023-03-10T21:20:54.308Z,9.50
2023-03-10T21:26:15.480Z,9.50
2023-03-10T21:31:25.433Z,9.40
2023-03-10T21:36:30.232Z,9.40
2023-03-10T21:41:34.791Z,9.30
2023-03-10T21:46:39.922Z,9.30
2023-03-10T21:51:52.312Z,9.30
2023-03-10T21:57:01.884Z,9.30
2023-03-10T22:02:05.938Z,9.40
2023-03-10T22:07:10.744Z,9.40
2023-03-10T22:12:14.205Z,9.60
2023-03-10T22:17:17.959Z,9.60
2023-03-10T22:22:22.473Z,9.60
2023-03-10T22:27:25.830Z,9.70
2023-03-10T22:32:46.822Z,9.70
2023-03-10T22:37:53.664Z,9.60
2023-03-10T22:43:04.729Z,9.60
2023-03-10T22:48:11.173Z,9.50
2023-03-10T22:53:17.891Z,9.60
2023-03-10T22:58:20.866Z,9.60
2023-03-10T23:03:23.932Z,9.60
2023-03-10T23:08:27.623Z,9.60
2023-03-10T23:13:30.610Z,9.60
2023-03-10T23:18:34.900Z,9.50
2023-03-10T23:23:45.600Z,9.50
2023-03-10T23:28:48.615Z,9.40
2023-03-10T23:33:55.001Z,9.30
2023-03-10T23:38:59.555Z,9.20
2023-03-10T23:44:06.254Z,9.10
2023-03-10T23:49:09.511Z,9.00
2023-03-10T23:54:25.583Z,8.90
2023-03-10T23:59:28.599Z,9.00
